sensor_id;sensor_type;location;lat;lon;timestamp;pressure;altitude;pressure_sealevel;temperature;humidity
10071;BME280;5074;53.720;10.014;2022-12-28T00:01:21;101188.47;;;4.66;100.00
10071;BME280;5074;53.720;10.014;2022-12-28T00:03:50;101180.53;;;4.65;100.00
10071;BME280;5074;53.720;10.014;2022-12-28T00:06:19;101182.31;;;4.67;100.00
10071;BME280;5074;53.720;10.014;2022-12-28T00:08:48;101162.00;;;4.63;100.00
10071;BME280;5074;53.720;10.014;2022-12-28T00:11:20;101162.91;;;4.64;100.00
10071;BME280;5074;53.720;10.014;2022-12-28T00:13:58;101159.34;;;4.66;100.00
10071;BME280;5074;53.720;10.014;2022-12-28T00:16:30;101153.19;;;4.66;100.00
10071;BME280;5074;53.720;10.014;2022-12-28T00:19:02;101144.38;;;4.64;100.00
10071;BME280;5074;53.720;10.014;2022-12-28T00:21:30;101140.84;;;4.59;100.00
10071;BME280;5074;53.720;10.014;2022-12-28T00:24:00;101139.97;;;4.63;100.00
10071;BME280;5074;53.720;10.014;2022-12-28T00:26:29;101135.53;;;4.63;100.00
10071;BME280;5074;53.720;10.014;2022-12-28T00:28:59;101125.81;;;4.67;100.00
10071;BME280;5074;53.720;10.014;2022-12-28T00:31:33;101124.91;;;4.66;100.00
10071;BME280;5074;53.720;10.014;2022-12-28T00:34:01;101121.44;;;4.61;100.00
10071;BME280;5074;53.720;10.014;2022-12-28T00:36:30;101116.13;;;4.63;100.00
10071;BME280;5074;53.720;10.014;2022-12-28T00:39:19;101113.47;;;4.66;100.00
10071;BME280;5074;53.720;10.014;2022-12-28T00:41:47;101104.66;;;4.59;100.00
10071;BME280;5074;53.720;10.014;2022-12-28T00:44:15;101096.72;;;4.59;100.00
10071;BME280;5074;53.720;10.014;2022-12-28T00:46:45;101101.13;;;4.60;100.00
10071;BME280;5074;53.720;10.014;2022-12-28T00:49:13;101086.13;;;4.62;100.00
10071;BME280;5074;53.720;10.014;2022-12-28T00:51:41;101088.78;;;4.59;100.00
10071;BME280;5074;53.720;10.014;2022-12-28T00:54:09;101080.84;;;4.62;100.00
10071;BME280;5074;53.720;10.014;2022-12-28T00:56:38;101085.25;;;4.60;100.00
10071;BME280;5074;53.720;10.014;2022-12-28T00:59:07;101082.56;;;4.66;100.00
10071;BME280;5074;53.720;10.014;2022-12-28T01:01:35;101058.75;;;4.63;100.00
10071;BME280;5074;53.720;10.014;2022-12-28T01:04:05;101070.25;;;4.61;100.00
10071;BME280;5074;53.720;10.014;2022-12-28T01:06:33;101061.47;;;4.54;100.00
10071;BME280;5074;53.720;10.014;2022-12-28T01:09:01;101049.06;;;4.65;100.00
10071;BME280;5074;53.720;10.014;2022-12-28T01:11:29;101043.72;;;4.68;100.00
10071;BME280;5074;53.720;10.014;2022-12-28T01:13:59;101037.56;;;4.65;100.00
10071;BME280;5074;53.720;10.014;2022-12-28T01:16:30;101038.47;;;4.59;100.00
10071;BME280;5074;53.720;10.014;2022-12-28T01:19:00;101033.16;;;4.65;100.00
10071;BME280;5074;53.720;10.014;2022-12-28T01:21:32;101020.75;;;4.70;100.00
10071;BME280;5074;53.720;10.014;2022-12-28T01:24:03;101019.94;;;4.64;100.00
10071;BME280;5074;53.720;10.014;2022-12-28T01:26:31;101012.00;;;4.59;100.00
10071;BME280;5074;53.720;10.014;2022-12-28T01:29:00;101010.22;;;4.64;100.00
10071;BME280;5074;53.720;10.014;2022-12-28T01:31:28;100996.09;;;4.65;100.00
10071;BME280;5074;53.720;10.014;2022-12-28T01:33:57;100998.75;;;4.65;100.00
10071;BME280;5074;53.720;10.014;2022-12-28T01:36:26;100999.66;;;4.61;100.00
10071;BME280;5074;53.720;10.014;2022-12-28T01:38:58;100991.72;;;4.58;100.00
10071;BME280;5074;53.720;10.014;2022-12-28T01:41:27;100990.84;;;4.61;100.00
10071;BME280;5074;53.720;10.014;2022-12-28T01:44:36;100978.44;;;4.64;100.00
10071;BME280;5074;53.720;10.014;2022-12-28T01:47:08;100987.25;;;4.69;100.00
10071;BME280;5074;53.720;10.014;2022-12-28T01:49:39;100969.56;;;4.72;100.00
10071;BME280;5074;53.720;10.014;2022-12-28T01:52:12;100971.34;;;4.66;100.00
10071;BME280;5074;53.720;10.014;2022-12-28T01:54:44;100966.97;;;4.65;100.00
10071;BME280;5074;53.720;10.014;2022-12-28T01:57:13;100964.25;;;4.73;100.00
10071;BME280;5074;53.720;10.014;2022-12-28T01:59:45;100965.09;;;4.75;100.00
10071;BME280;5074;53.720;10.014;2022-12-28T02:02:16;100981.06;;;4.66;100.00
10071;BME280;5074;53.720;10.014;2022-12-28T02:04:45;100979.28;;;4.73;100.00
10071;BME280;5074;53.720;10.014;2022-12-28T02:07:18;100977.50;;;4.72;100.00
10071;BME280;5074;53.720;10.014;2022-12-28T02:09:51;100983.69;;;4.70;100.00
10071;BME280;5074;53.720;10.014;2022-12-28T02:12:40;100980.22;;;4.64;100.00
10071;BME280;5074;53.720;10.014;2022-12-28T02:15:09;100982.06;;;4.54;100.00
10071;BME280;5074;53.720;10.014;2022-12-28T02:17:37;100972.31;;;4.56;100.00
10071;BME280;5074;53.720;10.014;2022-12-28T02:20:06;100973.22;;;4.52;100.00
10071;BME280;5074;53.720;10.014;2022-12-28T02:26:00;100963.56;;;4.49;100.00
10071;BME280;5074;53.720;10.014;2022-12-28T02:29:05;100946.84;;;4.43;100.00
10071;BME280;5074;53.720;10.014;2022-12-28T02:31:41;100937.13;;;4.40;100.00
10071;BME280;5074;53.720;10.014;2022-12-28T02:34:16;100936.31;;;4.35;100.00
10071;BME280;5074;53.720;10.014;2022-12-28T02:36:52;100930.09;;;4.36;100.00
10071;BME280;5074;53.720;10.014;2022-12-28T02:39:27;100921.38;;;4.26;100.00
10071;BME280;5074;53.720;10.014;2022-12-28T02:41:59;100912.56;;;4.23;100.00
10071;BME280;5074;53.720;10.014;2022-12-28T02:44:28;100904.69;;;4.16;100.00
10071;BME280;5074;53.720;10.014;2022-12-28T02:47:15;100893.19;;;4.21;100.00
10071;BME280;5074;53.720;10.014;2022-12-28T02:50:04;100892.34;;;4.14;100.00
10071;BME280;5074;53.720;10.014;2022-12-28T02:52:47;100884.50;;;4.03;100.00
10071;BME280;5074;53.720;10.014;2022-12-28T02:55:31;100875.63;;;4.12;100.00
10071;BME280;5074;53.720;10.014;2022-12-28T02:58:34;100872.97;;;4.10;100.00
10071;BME280;5074;53.720;10.014;2022-12-28T03:01:18;100876.53;;;4.05;100.00
10071;BME280;5074;53.720;10.014;2022-12-28T03:03:59;100866.00;;;3.97;100.00
10071;BME280;5074;53.720;10.014;2022-12-28T03:06:38;100858.06;;;4.02;100.00
10071;BME280;5074;53.720;10.014;2022-12-28T03:09:48;100850.13;;;3.97;100.00
10071;BME280;5074;53.720;10.014;2022-12-28T03:12:21;100851.03;;;3.91;100.00
10071;BME280;5074;53.720;10.014;2022-12-28T03:14:55;100837.88;;;3.82;100.00
10071;BME280;5074;53.720;10.014;2022-12-28T03:17:28;100829.94;;;3.85;100.00
10071;BME280;5074;53.720;10.014;2022-12-28T03:20:18;100829.00;;;3.91;100.00
10071;BME280;5074;53.720;10.014;2022-12-28T03:23:08;100818.44;;;3.91;100.00
10071;BME280;5074;53.720;10.014;2022-12-28T03:25:58;100813.19;;;3.86;100.00
10071;BME280;5074;53.720;10.014;2022-12-28T03:28:46;100803.53;;;3.82;100.00
10071;BME280;5074;53.720;10.014;2022-12-28T03:31:33;100796.50;;;3.76;100.00
10071;BME280;5074;53.720;10.014;2022-12-28T03:34:04;100791.19;;;3.81;100.00
10071;BME280;5074;53.720;10.014;2022-12-28T03:36:41;100788.53;;;3.81;100.00
10071;BME280;5074;53.720;10.014;2022-12-28T03:39:18;100788.56;;;3.78;100.00
10071;BME280;5074;53.720;10.014;2022-12-28T03:41:52;100775.34;;;3.76;100.00
10071;BME280;5074;53.720;10.014;2022-12-28T03:44:41;100782.38;;;3.79;100.00
10071;BME280;5074;53.720;10.014;2022-12-28T03:47:13;100763.88;;;3.79;100.00
10071;BME280;5074;53.720;10.014;2022-12-28T03:49:43;100762.13;;;3.78;100.00
10071;BME280;5074;53.720;10.014;2022-12-28T03:52:12;100755.09;;;3.74;100.00
10071;BME280;5074;53.720;10.014;2022-12-28T03:54:40;100750.69;;;3.76;100.00
10071;BME280;5074;53.720;10.014;2022-12-28T03:57:08;100741.84;;;3.80;100.00
10071;BME280;5074;53.720;10.014;2022-12-28T03:59:36;100733.06;;;3.76;100.00
10071;BME280;5074;53.720;10.014;2022-12-28T04:02:04;100728.63;;;3.80;100.00
10071;BME280;5074;53.720;10.014;2022-12-28T04:04:32;100717.16;;;3.79;100.00
10071;BME280;5074;53.720;10.014;2022-12-28T04:07:01;100711.81;;;3.84;100.00
10071;BME280;5074;53.720;10.014;2022-12-28T04:09:29;100703.94;;;3.79;100.00
10071;BME280;5074;53.720;10.014;2022-12-28T04:11:59;100706.66;;;3.72;100.00
10071;BME280;5074;53.720;10.014;2022-12-28T04:14:27;100698.66;;;3.79;100.00
10071;BME280;5074;53.720;10.014;2022-12-28T04:16:55;100695.09;;;3.85;100.00
10071;BME280;5074;53.720;10.014;2022-12-28T04:19:23;100687.16;;;3.83;100.00
10071;BME280;5074;53.720;10.014;2022-12-28T04:21:51;100686.31;;;3.83;100.00
10071;BME280;5074;53.720;10.014;2022-12-28T04:24:21;100671.22;;;3.90;100.00
10071;BME280;5074;53.720;10.014;2022-12-28T04:26:49;100663.31;;;3.88;100.00
10071;BME280;5074;53.720;10.014;2022-12-28T04:29:17;100663.31;;;3.88;100.00
10071;BME280;5074;53.720;10.014;2022-12-28T04:31:45;100651.03;;;3.81;100.00
10071;BME280;5074;53.720;10.014;2022-12-28T04:34:13;100630.78;;;3.83;100.00
10071;BME280;5074;53.720;10.014;2022-12-28T04:36:41;100638.66;;;3.86;100.00
10071;BME280;5074;53.720;10.014;2022-12-28T04:39:09;100636.91;;;3.87;100.00
10071;BME280;5074;53.720;10.014;2022-12-28T04:41:39;100626.38;;;3.82;100.00
10071;BME280;5074;53.720;10.014;2022-12-28T04:44:07;100619.28;;;3.87;100.00
10071;BME280;5074;53.720;10.014;2022-12-28T04:46:35;100622.88;;;3.78;100.00
10071;BME280;5074;53.720;10.014;2022-12-28T04:49:03;100615.75;;;3.85;100.00
10071;BME280;5074;53.720;10.014;2022-12-28T04:51:32;100612.28;;;3.81;100.00
10071;BME280;5074;53.720;10.014;2022-12-28T04:54:00;100605.22;;;3.80;100.00
10071;BME280;5074;53.720;10.014;2022-12-28T04:56:28;100594.59;;;3.85;100.00
10071;BME280;5074;53.720;10.014;2022-12-28T04:58:59;100582.28;;;3.82;100.00
10071;BME280;5074;53.720;10.014;2022-12-28T05:01:27;100588.50;;;3.80;100.00
10071;BME280;5074;53.720;10.014;2022-12-28T05:03:56;100585.81;;;3.85;100.00
10071;BME280;5074;53.720;10.014;2022-12-28T05:06:25;100602.56;;;3.82;100.00
10071;BME280;5074;53.720;10.014;2022-12-28T05:08:54;100574.34;;;3.82;100.00
10071;BME280;5074;53.720;10.014;2022-12-28T05:11:24;100570.81;;;3.83;100.00
10071;BME280;5074;53.720;10.014;2022-12-28T05:13:53;100580.50;;;3.86;100.00
10071;BME280;5074;53.720;10.014;2022-12-28T05:16:25;100566.47;;;3.78;100.00
10071;BME280;5074;53.720;10.014;2022-12-28T05:18:54;100579.63;;;3.84;100.00
10071;BME280;5074;53.720;10.014;2022-12-28T05:21:25;100569.00;;;3.90;100.00
10071;BME280;5074;53.720;10.014;2022-12-28T05:23:53;100562.06;;;3.81;100.00
10071;BME280;5074;53.720;10.014;2022-12-28T05:26:24;100555.91;;;3.78;100.00
10071;BME280;5074;53.720;10.014;2022-12-28T05:28:54;100552.34;;;3.82;100.00
10071;BME280;5074;53.720;10.014;2022-12-28T05:31:25;100555.81;;;3.84;100.00
10071;BME280;5074;53.720;10.014;2022-12-28T05:33:54;100560.31;;;3.79;100.00
10071;BME280;5074;53.720;10.014;2022-12-28T05:36:24;100555.81;;;3.87;100.00
10071;BME280;5074;53.720;10.014;2022-12-28T05:38:53;100550.53;;;3.86;100.00
10071;BME280;5074;53.720;10.014;2022-12-28T05:41:24;100561.06;;;3.90;100.00
10071;BME280;5074;53.720;10.014;2022-12-28T05:43:53;100559.34;;;3.86;100.00
10071;BME280;5074;53.720;10.014;2022-12-28T05:46:25;100552.28;;;3.87;100.00
10071;BME280;5074;53.720;10.014;2022-12-28T05:48:55;100547.84;;;3.92;100.00
10071;BME280;5074;53.720;10.014;2022-12-28T05:51:25;100525.03;;;3.83;100.00
10071;BME280;5074;53.720;10.014;2022-12-28T05:53:53;100528.47;;;3.88;100.00
10071;BME280;5074;53.720;10.014;2022-12-28T05:56:23;100531.13;;;3.87;100.00
10071;BME280;5074;53.720;10.014;2022-12-28T05:58:52;100526.63;;;3.96;100.00
10071;BME280;5074;53.720;10.014;2022-12-28T06:01:22;100520.47;;;3.94;100.00
10071;BME280;5074;53.720;10.014;2022-12-28T06:03:52;100480.00;;;3.88;100.00
10071;BME280;5074;53.720;10.014;2022-12-28T06:06:22;100488.69;;;3.99;100.00
10071;BME280;5074;53.720;10.014;2022-12-28T06:08:51;100480.81;;;3.91;100.00
10071;BME280;5074;53.720;10.014;2022-12-28T06:11:21;100489.66;;;3.92;100.00
10071;BME280;5074;53.720;10.014;2022-12-28T06:13:50;100493.13;;;3.95;100.00
10071;BME280;5074;53.720;10.014;2022-12-28T06:16:20;100472.13;;;3.85;100.00
10071;BME280;5074;53.720;10.014;2022-12-28T06:18:49;100454.34;;;3.97;100.00
10071;BME280;5074;53.720;10.014;2022-12-28T06:21:21;100450.06;;;3.84;100.00
10071;BME280;5074;53.720;10.014;2022-12-28T06:23:50;100462.31;;;3.94;100.00
10071;BME280;5074;53.720;10.014;2022-12-28T06:26:20;100464.94;;;3.96;100.00
10071;BME280;5074;53.720;10.014;2022-12-28T06:28:48;100453.41;;;4.02;100.00
10071;BME280;5074;53.720;10.014;2022-12-28T06:31:18;100456.97;;;3.97;100.00
10071;BME280;5074;53.720;10.014;2022-12-28T06:33:48;100454.19;;;4.07;100.00
10071;BME280;5074;53.720;10.014;2022-12-28T06:36:20;100459.53;;;4.04;100.00
10071;BME280;5074;53.720;10.014;2022-12-28T06:38:51;100453.34;;;4.06;100.00
10071;BME280;5074;53.720;10.014;2022-12-28T06:41:20;100448.94;;;4.04;100.00
10071;BME280;5074;53.720;10.014;2022-12-28T06:43:49;100452.53;;;3.99;100.00
10071;BME280;5074;53.720;10.014;2022-12-28T06:46:19;100440.91;;;4.11;100.00
10071;BME280;5074;53.720;10.014;2022-12-28T06:48:47;100432.19;;;4.05;100.00
10071;BME280;5074;53.720;10.014;2022-12-28T06:51:17;100434.69;;;4.14;100.00
10071;BME280;5074;53.720;10.014;2022-12-28T06:53:47;100431.22;;;4.12;100.00
10071;BME280;5074;53.720;10.014;2022-12-28T06:56:18;100425.00;;;4.16;100.00
10071;BME280;5074;53.720;10.014;2022-12-28T06:58:47;100421.44;;;4.17;100.00
10071;BME280;5074;53.720;10.014;2022-12-28T07:01:17;100421.44;;;4.17;100.00
10071;BME280;5074;53.720;10.014;2022-12-28T07:03:47;100423.13;;;4.21;100.00
10071;BME280;5074;53.720;10.014;2022-12-28T07:06:17;100409.97;;;4.18;100.00
10071;BME280;5074;53.720;10.014;2022-12-28T07:08:46;100414.25;;;4.27;100.00
10071;BME280;5074;53.720;10.014;2022-12-28T07:11:19;100406.41;;;4.19;100.00
10071;BME280;5074;53.720;10.014;2022-12-28T07:13:48;100413.44;;;4.20;100.00
10071;BME280;5074;53.720;10.014;2022-12-28T07:16:18;100416.06;;;4.22;100.00
10071;BME280;5074;53.720;10.014;2022-12-28T07:18:46;100410.81;;;4.18;100.00
10071;BME280;5074;53.720;10.014;2022-12-28T07:21:19;100401.03;;;4.25;100.00
10071;BME280;5074;53.720;10.014;2022-12-28T07:23:48;100410.66;;;4.31;100.00
10071;BME280;5074;53.720;10.014;2022-12-28T07:26:20;100408.78;;;4.39;100.00
10071;BME280;5074;53.720;10.014;2022-12-28T07:28:51;100404.19;;;4.49;100.00
10071;BME280;5074;53.720;10.014;2022-12-28T07:31:21;100409.16;;;4.69;100.00
10071;BME280;5074;53.720;10.014;2022-12-28T07:33:52;100409.22;;;4.66;100.00
10071;BME280;5074;53.720;10.014;2022-12-28T07:36:22;100396.38;;;4.94;100.00
10071;BME280;5074;53.720;10.014;2022-12-28T07:38:51;100393.88;;;4.85;100.00
10071;BME280;5074;53.720;10.014;2022-12-28T07:41:23;100395.03;;;5.20;100.00
10071;BME280;5074;53.720;10.014;2022-12-28T07:43:51;100394.78;;;5.32;100.00
10071;BME280;5074;53.720;10.014;2022-12-28T07:46:21;100387.16;;;5.14;100.00
10071;BME280;5074;53.720;10.014;2022-12-28T07:48:50;100392.41;;;5.62;100.00
10071;BME280;5074;53.720;10.014;2022-12-28T07:51:20;100396.38;;;5.41;100.00
10071;BME280;5074;53.720;10.014;2022-12-28T07:53:51;100391.88;;;5.46;100.00
10071;BME280;5074;53.720;10.014;2022-12-28T07:56:22;100391.25;;;5.32;100.00
10071;BME280;5074;53.720;10.014;2022-12-28T07:58:51;100383.31;;;5.32;100.00
10071;BME280;5074;53.720;10.014;2022-12-28T08:01:21;100386.19;;;5.19;100.00
10071;BME280;5074;53.720;10.014;2022-12-28T08:03:52;100389.16;;;5.02;100.00
10071;BME280;5074;53.720;10.014;2022-12-28T08:06:21;100398.13;;;4.94;100.00
10071;BME280;5074;53.720;10.014;2022-12-28T08:08:51;100373.03;;;5.15;100.00
10071;BME280;5074;53.720;10.014;2022-12-28T08:11:23;100384.44;;;5.20;100.00
10071;BME280;5074;53.720;10.014;2022-12-28T08:13:53;100380.75;;;5.27;100.00
10071;BME280;5074;53.720;10.014;2022-12-28T08:16:23;100378.09;;;5.26;100.00
10071;BME280;5074;53.720;10.014;2022-12-28T08:18:53;100397.69;;;5.18;100.00
10071;BME280;5074;53.720;10.014;2022-12-28T08:21:23;100388.44;;;5.39;100.00
10071;BME280;5074;53.720;10.014;2022-12-28T08:23:52;100384.94;;;5.39;100.00
10071;BME280;5074;53.720;10.014;2022-12-28T08:26:22;100399.28;;;5.29;100.00
10071;BME280;5074;53.720;10.014;2022-12-28T08:28:52;100389.25;;;5.45;100.00
10071;BME280;5074;53.720;10.014;2022-12-28T08:31:22;100392.78;;;5.44;100.00
10071;BME280;5074;53.720;10.014;2022-12-28T08:33:52;100388.31;;;5.46;100.00
10071;BME280;5074;53.720;10.014;2022-12-28T08:36:20;100387.59;;;5.39;100.00
10071;BME280;5074;53.720;10.014;2022-12-28T08:38:49;100391.22;;;5.33;100.00
10071;BME280;5074;53.720;10.014;2022-12-28T08:41:19;100389.47;;;5.32;100.00
10071;BME280;5074;53.720;10.014;2022-12-28T08:43:50;100385.97;;;5.32;100.00
10071;BME280;5074;53.720;10.014;2022-12-28T08:46:20;100386.00;;;5.30;100.00
10071;BME280;5074;53.720;10.014;2022-12-28T08:48:50;100380.63;;;5.33;100.00
10071;BME280;5074;53.720;10.014;2022-12-28T08:51:20;100371.06;;;5.26;100.00
10071;BME280;5074;53.720;10.014;2022-12-28T08:53:49;100374.34;;;5.39;100.00
10071;BME280;5074;53.720;10.014;2022-12-28T08:56:18;100374.22;;;5.44;100.00
10071;BME280;5074;53.720;10.014;2022-12-28T08:58:49;100377.78;;;5.43;100.00
10071;BME280;5074;53.720;10.014;2022-12-28T09:01:19;100377.69;;;5.47;100.00
10071;BME280;5074;53.720;10.014;2022-12-28T09:03:49;100377.53;;;5.55;100.00
10071;BME280;5074;53.720;10.014;2022-12-28T09:06:19;100375.59;;;5.63;100.00
10071;BME280;5074;53.720;10.014;2022-12-28T09:08:48;100369.38;;;5.64;100.00
10071;BME280;5074;53.720;10.014;2022-12-28T09:11:32;100370.28;;;5.65;100.00
10071;BME280;5074;53.720;10.014;2022-12-28T09:14:02;100371.91;;;5.72;100.00
10071;BME280;5074;53.720;10.014;2022-12-28T09:16:31;100367.41;;;5.74;100.00
10071;BME280;5074;53.720;10.014;2022-12-28T09:19:01;100379.59;;;5.83;100.00
10071;BME280;5074;53.720;10.014;2022-12-28T09:21:32;100368.09;;;5.84;100.00
10071;BME280;5074;53.720;10.014;2022-12-28T09:24:01;100373.25;;;5.90;100.00
10071;BME280;5074;53.720;10.014;2022-12-28T09:26:31;100374.06;;;5.92;100.00
10071;BME280;5074;53.720;10.014;2022-12-28T09:29:04;100367.88;;;5.93;100.00
10071;BME280;5074;53.720;10.014;2022-12-28T09:31:33;100366.88;;;6.00;100.00
10071;BME280;5074;53.720;10.014;2022-12-28T09:34:03;100369.44;;;6.03;100.00
10071;BME280;5074;53.720;10.014;2022-12-28T09:36:52;100370.41;;;5.99;100.00
10071;BME280;5074;53.720;10.014;2022-12-28T09:39:20;100372.03;;;6.06;100.00
10071;BME280;5074;53.720;10.014;2022-12-28T09:41:53;100367.72;;;6.02;100.00
10071;BME280;5074;53.720;10.014;2022-12-28T09:44:38;100373.69;;;6.11;100.00
10071;BME280;5074;53.720;10.014;2022-12-28T09:47:15;100364.75;;;6.15;100.00
10071;BME280;5074;53.720;10.014;2022-12-28T09:49:52;100357.59;;;6.20;100.00
10071;BME280;5074;53.720;10.014;2022-12-28T09:52:27;100368.19;;;6.20;100.00
10071;BME280;5074;53.720;10.014;2022-12-28T09:55:03;100369.13;;;6.17;100.00
10071;BME280;5074;53.720;10.014;2022-12-28T09:57:36;100357.50;;;6.23;100.00
10071;BME280;5074;53.720;10.014;2022-12-28T10:00:15;100364.56;;;6.22;100.00
10071;BME280;5074;53.720;10.014;2022-12-28T10:02:47;100355.50;;;6.33;100.00
10071;BME280;5074;53.720;10.014;2022-12-28T10:05:19;100363.47;;;6.33;100.00
10071;BME280;5074;53.720;10.014;2022-12-28T10:07:48;100360.84;;;6.31;100.00
10071;BME280;5074;53.720;10.014;2022-12-28T10:10:18;100360.66;;;6.39;100.00
10071;BME280;5074;53.720;10.014;2022-12-28T10:12:48;100373.06;;;6.37;100.00
10071;BME280;5074;53.720;10.014;2022-12-28T10:15:20;100350.00;;;6.40;100.00
10071;BME280;5074;53.720;10.014;2022-12-28T10:17:49;100353.50;;;6.41;100.00
10071;BME280;5074;53.720;10.014;2022-12-28T10:20:18;100350.84;;;6.41;100.00
10071;BME280;5074;53.720;10.014;2022-12-28T10:22:49;100347.13;;;6.48;100.00
10071;BME280;5074;53.720;10.014;2022-12-28T10:25:20;100348.91;;;6.49;100.00
10071;BME280;5074;53.720;10.014;2022-12-28T10:27:49;100346.19;;;6.51;100.00
10071;BME280;5074;53.720;10.014;2022-12-28T10:30:21;100334.69;;;6.52;100.00
10071;BME280;5074;53.720;10.014;2022-12-28T10:32:54;100343.38;;;6.57;100.00
10071;BME280;5074;53.720;10.014;2022-12-28T10:35:31;100340.50;;;6.66;100.00
10071;BME280;5074;53.720;10.014;2022-12-28T10:38:04;100336.06;;;6.67;100.00
10071;BME280;5074;53.720;10.014;2022-12-28T10:40:36;100339.56;;;6.69;100.00
10071;BME280;5074;53.720;10.014;2022-12-28T10:43:05;100336.00;;;6.68;100.00
10071;BME280;5074;53.720;10.014;2022-12-28T10:45:39;100338.53;;;6.73;100.00
10071;BME280;5074;53.720;10.014;2022-12-28T10:48:13;100341.19;;;6.73;100.00
10071;BME280;5074;53.720;10.014;2022-12-28T10:50:49;100338.50;;;6.74;100.00
10071;BME280;5074;53.720;10.014;2022-12-28T10:53:22;100355.38;;;6.73;100.00
10071;BME280;5074;53.720;10.014;2022-12-28T10:56:04;100350.03;;;6.75;100.00
10071;BME280;5074;53.720;10.014;2022-12-28T10:58:33;100346.06;;;6.90;100.00
10071;BME280;5074;53.720;10.014;2022-12-28T11:01:05;100357.56;;;6.92;100.00
10071;BME280;5074;53.720;10.014;2022-12-28T11:03:35;100352.38;;;6.86;100.00
10071;BME280;5074;53.720;10.014;2022-12-28T11:06:12;100344.44;;;6.84;100.00
10071;BME280;5074;53.720;10.014;2022-12-28T11:08:43;100335.66;;;6.82;100.00
10071;BME280;5074;53.720;10.014;2022-12-28T11:11:18;100358.31;;;6.95;100.00
10071;BME280;5074;53.720;10.014;2022-12-28T11:13:50;100348.50;;;6.98;100.00
10071;BME280;5074;53.720;10.014;2022-12-28T11:16:20;100358.28;;;6.97;100.00
10071;BME280;5074;53.720;10.014;2022-12-28T11:18:48;100338.69;;;7.01;100.00
10071;BME280;5074;53.720;10.014;2022-12-28T11:21:19;100335.09;;;7.04;100.00
10071;BME280;5074;53.720;10.014;2022-12-28T11:23:49;100339.47;;;7.05;100.00
10071;BME280;5074;53.720;10.014;2022-12-28T11:26:18;100340.41;;;7.04;100.00
10071;BME280;5074;53.720;10.014;2022-12-28T11:28:48;100337.69;;;7.05;100.00
10071;BME280;5074;53.720;10.014;2022-12-28T11:31:23;100338.50;;;7.07;100.00
10071;BME280;5074;53.720;10.014;2022-12-28T11:33:55;100330.66;;;7.03;100.00
10071;BME280;5074;53.720;10.014;2022-12-28T11:36:25;100341.16;;;7.07;100.00
10071;BME280;5074;53.720;10.014;2022-12-28T11:38:55;100336.75;;;7.08;100.00
10071;BME280;5074;53.720;10.014;2022-12-28T11:41:42;100325.22;;;7.07;100.00
10071;BME280;5074;53.720;10.014;2022-12-28T11:44:51;100327.94;;;7.06;100.00
10071;BME280;5074;53.720;10.014;2022-12-28T11:47:26;100317.47;;;7.00;100.00
10071;BME280;5074;53.720;10.014;2022-12-28T11:53:22;100327.84;;;7.09;100.00
10071;BME280;5074;53.720;10.014;2022-12-28T11:56:05;100338.38;;;7.12;100.00
10071;BME280;5074;53.720;10.014;2022-12-28T11:58:43;100298.78;;;7.03;100.00
10071;BME280;5074;53.720;10.014;2022-12-28T12:01:40;100334.81;;;7.13;100.00
10071;BME280;5074;53.720;10.014;2022-12-28T12:04:34;100332.28;;;7.08;100.00
10071;BME280;5074;53.720;10.014;2022-12-28T12:07:25;100320.63;;;7.14;100.00
10071;BME280;5074;53.720;10.014;2022-12-28T12:10:24;100329.41;;;7.16;100.00
10071;BME280;5074;53.720;10.014;2022-12-28T12:12:53;100324.09;;;7.16;100.00
10071;BME280;5074;53.720;10.014;2022-12-28T12:15:32;100318.81;;;7.15;100.00
10071;BME280;5074;53.720;10.014;2022-12-28T12:18:02;100324.22;;;7.11;100.00
10071;BME280;5074;53.720;10.014;2022-12-28T12:20:54;100321.44;;;7.16;100.00
10071;BME280;5074;53.720;10.014;2022-12-28T12:23:30;100304.84;;;7.08;100.00
10071;BME280;5074;53.720;10.014;2022-12-28T12:26:09;100306.66;;;7.06;100.00
10071;BME280;5074;53.720;10.014;2022-12-28T12:28:44;100317.22;;;7.09;100.00
10071;BME280;5074;53.720;10.014;2022-12-28T12:31:15;100318.00;;;7.12;100.00
10071;BME280;5074;53.720;10.014;2022-12-28T12:33:47;100310.94;;;7.11;100.00
10071;BME280;5074;53.720;10.014;2022-12-28T12:36:32;100307.25;;;7.17;100.00
10071;BME280;5074;53.720;10.014;2022-12-28T12:39:14;100308.06;;;7.19;100.00
10071;BME280;5074;53.720;10.014;2022-12-28T12:41:52;100312.59;;;7.16;100.00
10071;BME280;5074;53.720;10.014;2022-12-28T12:44:28;100300.88;;;7.23;100.00
10071;BME280;5074;53.720;10.014;2022-12-28T12:47:28;100299.03;;;7.25;100.00
10071;BME280;5074;53.720;10.014;2022-12-28T12:50:23;100310.50;;;7.27;100.00
10071;BME280;5074;53.720;10.014;2022-12-28T12:53:04;100289.28;;;7.25;100.00
10071;BME280;5074;53.720;10.014;2022-12-28T12:55:45;100305.19;;;7.27;100.00
10071;BME280;5074;53.720;10.014;2022-12-28T12:58:21;100311.97;;;7.37;100.00
10071;BME280;5074;53.720;10.014;2022-12-28T13:01:05;100305.09;;;7.30;100.00
10071;BME280;5074;53.720;10.014;2022-12-28T13:03:42;100306.84;;;7.31;100.00
10071;BME280;5074;53.720;10.014;2022-12-28T13:06:13;100312.69;;;7.44;100.00
10071;BME280;5074;53.720;10.014;2022-12-28T13:08:47;100299.69;;;7.33;100.00
10071;BME280;5074;53.720;10.014;2022-12-28T13:11:16;100311.06;;;7.38;100.00
10071;BME280;5074;53.720;10.014;2022-12-28T13:13:48;100306.63;;;7.39;100.00
10071;BME280;5074;53.720;10.014;2022-12-28T13:16:19;100303.09;;;7.38;100.00
10071;BME280;5074;53.720;10.014;2022-12-28T13:18:53;100298.59;;;7.40;100.00
10071;BME280;5074;53.720;10.014;2022-12-28T13:21:22;100296.22;;;7.31;100.00
10071;BME280;5074;53.720;10.014;2022-12-28T13:23:52;100286.31;;;7.36;100.00
10071;BME280;5074;53.720;10.014;2022-12-28T13:26:27;100286.44;;;7.32;100.00